sensor_id;sensor_type;location;lat;lon;timestamp;temperature;humidity
31129;DHT22;17777;48.770;8.944;2024-02-23T00:01:04;11.40;56.50
31129;DHT22;17777;48.770;8.944;2024-02-23T00:03:30;11.40;56.50
31129;DHT22;17777;48.770;8.944;2024-02-23T00:05:58;11.40;56.40
31129;DHT22;17777;48.770;8.944;2024-02-23T00:08:24;11.50;56.40
31129;DHT22;17777;48.770;8.944;2024-02-23T00:10:49;11.50;56.30
31129;DHT22;17777;48.770;8.944;2024-02-23T00:13:15;11.50;56.20
31129;DHT22;17777;48.770;8.944;2024-02-23T00:15:41;11.50;56.10
31129;DHT22;17777;48.770;8.944;2024-02-23T00:18:09;11.40;56.10
31129;DHT22;17777;48.770;8.944;2024-02-23T00:20:35;11.40;56.20
31129;DHT22;17777;48.770;8.944;2024-02-23T00:23:02;11.40;56.20
31129;DHT22;17777;48.770;8.944;2024-02-23T00:25:28;11.40;56.20
31129;DHT22;17777;48.770;8.944;2024-02-23T00:27:54;11.40;56.10
31129;DHT22;17777;48.770;8.944;2024-02-23T00:30:20;11.40;56.10
31129;DHT22;17777;48.770;8.944;2024-02-23T00:32:46;11.40;56.20
31129;DHT22;17777;48.770;8.944;2024-02-23T00:35:11;11.40;56.10
31129;DHT22;17777;48.770;8.944;2024-02-23T00:37:37;11.40;56.00
31129;DHT22;17777;48.770;8.944;2024-02-23T00:40:04;11.40;55.80
31129;DHT22;17777;48.770;8.944;2024-02-23T00:42:31;11.40;55.80
31129;DHT22;17777;48.770;8.944;2024-02-23T00:44:57;11.40;55.90
31129;DHT22;17777;48.770;8.944;2024-02-23T00:47:22;11.40;55.90
31129;DHT22;17777;48.770;8.944;2024-02-23T00:49:48;11.40;56.00
31129;DHT22;17777;48.770;8.944;2024-02-23T00:52:15;11.40;56.30
31129;DHT22;17777;48.770;8.944;2024-02-23T00:54:41;11.50;56.00
31129;DHT22;17777;48.770;8.944;2024-02-23T00:57:07;11.50;55.90
31129;DHT22;17777;48.770;8.944;2024-02-23T00:59:33;11.50;55.80
31129;DHT22;17777;48.770;8.944;2024-02-23T01:01:59;11.50;55.70
31129;DHT22;17777;48.770;8.944;2024-02-23T01:04:25;11.50;55.70
31129;DHT22;17777;48.770;8.944;2024-02-23T01:06:51;11.50;55.70
31129;DHT22;17777;48.770;8.944;2024-02-23T01:09:17;11.50;55.70
31129;DHT22;17777;48.770;8.944;2024-02-23T01:11:46;11.50;55.70
31129;DHT22;17777;48.770;8.944;2024-02-23T01:14:13;11.50;55.70
31129;DHT22;17777;48.770;8.944;2024-02-23T01:16:39;11.60;55.70
31129;DHT22;17777;48.770;8.944;2024-02-23T01:19:05;11.60;55.70
31129;DHT22;17777;48.770;8.944;2024-02-23T01:21:30;11.60;55.70
31129;DHT22;17777;48.770;8.944;2024-02-23T01:23:56;11.60;55.60
31129;DHT22;17777;48.770;8.944;2024-02-23T01:26:23;11.60;55.50
31129;DHT22;17777;48.770;8.944;2024-02-23T01:28:49;11.60;55.60
31129;DHT22;17777;48.770;8.944;2024-02-23T01:31:15;11.60;55.60
31129;DHT22;17777;48.770;8.944;2024-02-23T01:33:41;11.60;55.50
31129;DHT22;17777;48.770;8.944;2024-02-23T01:36:07;11.60;55.50
31129;DHT22;17777;48.770;8.944;2024-02-23T01:38:33;11.60;55.50
31129;DHT22;17777;48.770;8.944;2024-02-23T01:41:00;11.70;55.50
31129;DHT22;17777;48.770;8.944;2024-02-23T01:43:26;11.70;55.50
31129;DHT22;17777;48.770;8.944;2024-02-23T01:45:52;11.70;55.50
31129;DHT22;17777;48.770;8.944;2024-02-23T01:48:19;11.70;55.40
31129;DHT22;17777;48.770;8.944;2024-02-23T01:50:45;11.70;55.40
31129;DHT22;17777;48.770;8.944;2024-02-23T01:53:11;11.70;55.30
31129;DHT22;17777;48.770;8.944;2024-02-23T01:55:41;11.70;55.30
31129;DHT22;17777;48.770;8.944;2024-02-23T01:58:07;11.70;55.30
31129;DHT22;17777;48.770;8.944;2024-02-23T02:00:34;11.80;55.40
31129;DHT22;17777;48.770;8.944;2024-02-23T02:03:01;11.70;55.30
31129;DHT22;17777;48.770;8.944;2024-02-23T02:05:27;11.80;55.40
31129;DHT22;17777;48.770;8.944;2024-02-23T02:07:55;11.80;55.30
31129;DHT22;17777;48.770;8.944;2024-02-23T02:10:25;11.80;55.30
31129;DHT22;17777;48.770;8.944;2024-02-23T02:12:51;11.80;55.30
31129;DHT22;17777;48.770;8.944;2024-02-23T02:15:17;11.70;55.30
31129;DHT22;17777;48.770;8.944;2024-02-23T02:17:43;11.80;55.30
31129;DHT22;17777;48.770;8.944;2024-02-23T02:20:11;11.70;55.10
31129;DHT22;17777;48.770;8.944;2024-02-23T02:22:39;11.70;55.10
31129;DHT22;17777;48.770;8.944;2024-02-23T02:25:05;11.70;55.10
31129;DHT22;17777;48.770;8.944;2024-02-23T02:27:32;11.70;55.10
31129;DHT22;17777;48.770;8.944;2024-02-23T02:29:58;11.70;55.20
31129;DHT22;17777;48.770;8.944;2024-02-23T02:32:24;11.70;55.00
31129;DHT22;17777;48.770;8.944;2024-02-23T02:34:50;11.70;55.00
31129;DHT22;17777;48.770;8.944;2024-02-23T02:37:15;11.70;54.90
31129;DHT22;17777;48.770;8.944;2024-02-23T02:39:41;11.60;54.80
31129;DHT22;17777;48.770;8.944;2024-02-23T02:42:07;11.60;54.80
31129;DHT22;17777;48.770;8.944;2024-02-23T02:44:33;11.60;54.80
31129;DHT22;17777;48.770;8.944;2024-02-23T02:47:00;11.60;54.60
31129;DHT22;17777;48.770;8.944;2024-02-23T02:49:26;11.60;54.60
31129;DHT22;17777;48.770;8.944;2024-02-23T02:51:52;11.60;54.60
31129;DHT22;17777;48.770;8.944;2024-02-23T02:54:18;11.50;54.70
31129;DHT22;17777;48.770;8.944;2024-02-23T02:56:44;11.60;54.70
31129;DHT22;17777;48.770;8.944;2024-02-23T02:59:12;11.60;54.70
31129;DHT22;17777;48.770;8.944;2024-02-23T03:01:38;11.60;54.70
31129;DHT22;17777;48.770;8.944;2024-02-23T03:04:04;11.60;54.60
31129;DHT22;17777;48.770;8.944;2024-02-23T03:06:30;11.60;54.40
31129;DHT22;17777;48.770;8.944;2024-02-23T03:08:57;11.50;54.10
31129;DHT22;17777;48.770;8.944;2024-02-23T03:11:22;11.50;53.90
31129;DHT22;17777;48.770;8.944;2024-02-23T03:13:48;11.40;53.90
31129;DHT22;17777;48.770;8.944;2024-02-23T03:16:17;11.40;54.60
31129;DHT22;17777;48.770;8.944;2024-02-23T03:18:44;11.30;53.80
31129;DHT22;17777;48.770;8.944;2024-02-23T03:21:10;11.40;54.00
31129;DHT22;17777;48.770;8.944;2024-02-23T03:23:36;11.40;54.00
31129;DHT22;17777;48.770;8.944;2024-02-23T03:26:02;11.30;53.90
31129;DHT22;17777;48.770;8.944;2024-02-23T03:28:28;11.30;53.90
31129;DHT22;17777;48.770;8.944;2024-02-23T03:30:54;11.30;53.90
31129;DHT22;17777;48.770;8.944;2024-02-23T03:33:20;11.30;54.00
31129;DHT22;17777;48.770;8.944;2024-02-23T03:35:46;11.30;54.00
31129;DHT22;17777;48.770;8.944;2024-02-23T03:38:12;11.20;53.80
31129;DHT22;17777;48.770;8.944;2024-02-23T03:40:37;11.20;53.60
31129;DHT22;17777;48.770;8.944;2024-02-23T03:43:03;11.20;53.60
31129;DHT22;17777;48.770;8.944;2024-02-23T03:45:29;11.20;53.80
31129;DHT22;17777;48.770;8.944;2024-02-23T03:47:55;11.20;53.50
31129;DHT22;17777;48.770;8.944;2024-02-23T03:50:21;11.10;53.50
31129;DHT22;17777;48.770;8.944;2024-02-23T03:52:46;11.10;53.40
31129;DHT22;17777;48.770;8.944;2024-02-23T03:55:12;11.10;53.50
31129;DHT22;17777;48.770;8.944;2024-02-23T03:57:38;11.00;53.50
31129;DHT22;17777;48.770;8.944;2024-02-23T04:00:04;11.10;53.60
31129;DHT22;17777;48.770;8.944;2024-02-23T04:02:38;11.00;53.50
31129;DHT22;17777;48.770;8.944;2024-02-23T04:05:04;11.00;53.40
31129;DHT22;17777;48.770;8.944;2024-02-23T04:07:31;11.00;53.40
31129;DHT22;17777;48.770;8.944;2024-02-23T04:09:56;11.00;53.50
31129;DHT22;17777;48.770;8.944;2024-02-23T04:12:22;11.00;53.50
31129;DHT22;17777;48.770;8.944;2024-02-23T04:14:48;11.00;53.20
31129;DHT22;17777;48.770;8.944;2024-02-23T04:17:15;11.00;53.40
31129;DHT22;17777;48.770;8.944;2024-02-23T04:19:41;11.00;53.50
31129;DHT22;17777;48.770;8.944;2024-02-23T04:22:08;11.00;53.40
31129;DHT22;17777;48.770;8.944;2024-02-23T04:24:39;11.00;53.50
31129;DHT22;17777;48.770;8.944;2024-02-23T04:27:06;11.00;53.40
31129;DHT22;17777;48.770;8.944;2024-02-23T04:29:34;11.00;53.50
31129;DHT22;17777;48.770;8.944;2024-02-23T04:32:01;11.10;53.60
31129;DHT22;17777;48.770;8.944;2024-02-23T04:34:27;11.10;53.50
31129;DHT22;17777;48.770;8.944;2024-02-23T04:36:54;11.10;53.40
31129;DHT22;17777;48.770;8.944;2024-02-23T04:39:20;11.10;53.40
31129;DHT22;17777;48.770;8.944;2024-02-23T04:41:47;11.10;53.40
31129;DHT22;17777;48.770;8.944;2024-02-23T04:44:13;11.20;53.40
31129;DHT22;17777;48.770;8.944;2024-02-23T04:46:38;11.10;53.10
31129;DHT22;17777;48.770;8.944;2024-02-23T04:49:04;11.10;53.10
31129;DHT22;17777;48.770;8.944;2024-02-23T04:51:30;11.20;53.20
31129;DHT22;17777;48.770;8.944;2024-02-23T04:53:56;11.20;53.20
31129;DHT22;17777;48.770;8.944;2024-02-23T04:56:21;11.20;52.90
31129;DHT22;17777;48.770;8.944;2024-02-23T04:58:47;11.10;52.90
31129;DHT22;17777;48.770;8.944;2024-02-23T05:01:13;11.20;52.80
31129;DHT22;17777;48.770;8.944;2024-02-23T05:03:39;11.10;52.80
31129;DHT22;17777;48.770;8.944;2024-02-23T05:06:05;11.10;52.70
31129;DHT22;17777;48.770;8.944;2024-02-23T05:08:31;11.10;52.50
31129;DHT22;17777;48.770;8.944;2024-02-23T05:10:57;11.10;52.70
31129;DHT22;17777;48.770;8.944;2024-02-23T05:13:23;11.00;52.70
31129;DHT22;17777;48.770;8.944;2024-02-23T05:15:49;11.00;52.70
31129;DHT22;17777;48.770;8.944;2024-02-23T05:18:15;11.00;52.70
31129;DHT22;17777;48.770;8.944;2024-02-23T05:20:41;11.00;52.70
31129;DHT22;17777;48.770;8.944;2024-02-23T05:23:07;11.00;52.70
31129;DHT22;17777;48.770;8.944;2024-02-23T05:25:34;11.00;52.60
31129;DHT22;17777;48.770;8.944;2024-02-23T05:28:00;11.00;52.60
31129;DHT22;17777;48.770;8.944;2024-02-23T05:30:25;11.00;52.40
31129;DHT22;17777;48.770;8.944;2024-02-23T05:32:52;11.00;52.40
31129;DHT22;17777;48.770;8.944;2024-02-23T05:35:18;11.00;52.40
31129;DHT22;17777;48.770;8.944;2024-02-23T05:37:45;11.00;52.30
31129;DHT22;17777;48.770;8.944;2024-02-23T05:40:11;11.00;52.40
31129;DHT22;17777;48.770;8.944;2024-02-23T05:42:37;10.90;52.20
31129;DHT22;17777;48.770;8.944;2024-02-23T05:45:03;10.90;52.30
31129;DHT22;17777;48.770;8.944;2024-02-23T05:47:30;10.80;52.00
31129;DHT22;17777;48.770;8.944;2024-02-23T05:49:56;10.70;52.00
31129;DHT22;17777;48.770;8.944;2024-02-23T05:52:22;10.70;52.20
31129;DHT22;17777;48.770;8.944;2024-02-23T05:54:48;10.60;52.30
31129;DHT22;17777;48.770;8.944;2024-02-23T05:57:14;10.60;52.40
31129;DHT22;17777;48.770;8.944;2024-02-23T05:59:39;10.60;52.50
31129;DHT22;17777;48.770;8.944;2024-02-23T06:02:05;10.60;52.50
31129;DHT22;17777;48.770;8.944;2024-02-23T06:04:31;10.50;52.50
31129;DHT22;17777;48.770;8.944;2024-02-23T06:06:57;10.50;52.50
31129;DHT22;17777;48.770;8.944;2024-02-23T06:09:23;10.50;52.50
31129;DHT22;17777;48.770;8.944;2024-02-23T06:11:49;10.50;52.60
31129;DHT22;17777;48.770;8.944;2024-02-23T06:14:15;10.40;52.60
31129;DHT22;17777;48.770;8.944;2024-02-23T06:16:40;10.40;52.70
31129;DHT22;17777;48.770;8.944;2024-02-23T06:19:06;10.40;52.80
31129;DHT22;17777;48.770;8.944;2024-02-23T06:21:32;10.40;52.80
31129;DHT22;17777;48.770;8.944;2024-02-23T06:23:58;10.40;52.80
31129;DHT22;17777;48.770;8.944;2024-02-23T06:26:24;10.40;52.90
31129;DHT22;17777;48.770;8.944;2024-02-23T06:28:50;10.40;52.90
31129;DHT22;17777;48.770;8.944;2024-02-23T06:31:16;10.40;52.90
31129;DHT22;17777;48.770;8.944;2024-02-23T06:33:42;10.40;52.90
31129;DHT22;17777;48.770;8.944;2024-02-23T06:36:08;10.40;53.00
31129;DHT22;17777;48.770;8.944;2024-02-23T06:38:35;10.40;53.00
31129;DHT22;17777;48.770;8.944;2024-02-23T06:41:00;10.30;53.00
31129;DHT22;17777;48.770;8.944;2024-02-23T06:43:26;10.40;53.20
31129;DHT22;17777;48.770;8.944;2024-02-23T06:45:52;10.30;53.20
31129;DHT22;17777;48.770;8.944;2024-02-23T06:48:18;10.40;53.30
31129;DHT22;17777;48.770;8.944;2024-02-23T06:50:44;10.40;53.30
31129;DHT22;17777;48.770;8.944;2024-02-23T06:53:10;10.40;53.30
31129;DHT22;17777;48.770;8.944;2024-02-23T06:55:35;10.30;53.30
31129;DHT22;17777;48.770;8.944;2024-02-23T06:58:01;10.30;53.50
31129;DHT22;17777;48.770;8.944;2024-02-23T07:00:27;10.30;53.50
31129;DHT22;17777;48.770;8.944;2024-02-23T07:02:53;10.30;53.60
31129;DHT22;17777;48.770;8.944;2024-02-23T07:05:19;10.30;53.60
31129;DHT22;17777;48.770;8.944;2024-02-23T07:07:45;10.20;53.60
31129;DHT22;17777;48.770;8.944;2024-02-23T07:10:11;10.20;53.60
31129;DHT22;17777;48.770;8.944;2024-02-23T07:12:37;10.20;53.60
31129;DHT22;17777;48.770;8.944;2024-02-23T07:15:03;10.20;53.70
31129;DHT22;17777;48.770;8.944;2024-02-23T07:17:29;10.10;53.80
31129;DHT22;17777;48.770;8.944;2024-02-23T07:19:55;10.10;53.80
31129;DHT22;17777;48.770;8.944;2024-02-23T07:22:28;10.10;53.90
31129;DHT22;17777;48.770;8.944;2024-02-23T07:24:54;10.10;53.90
31129;DHT22;17777;48.770;8.944;2024-02-23T07:27:20;10.00;53.80
31129;DHT22;17777;48.770;8.944;2024-02-23T07:29:46;10.00;53.90
31129;DHT22;17777;48.770;8.944;2024-02-23T07:32:13;10.10;54.00
31129;DHT22;17777;48.770;8.944;2024-02-23T07:34:39;10.00;54.00
31129;DHT22;17777;48.770;8.944;2024-02-23T07:37:05;10.10;54.00
31129;DHT22;17777;48.770;8.944;2024-02-23T07:39:31;10.10;54.00
31129;DHT22;17777;48.770;8.944;2024-02-23T07:41:57;10.10;54.20
31129;DHT22;17777;48.770;8.944;2024-02-23T07:44:22;10.10;54.20
31129;DHT22;17777;48.770;8.944;2024-02-23T07:46:50;10.10;54.10
31129;DHT22;17777;48.770;8.944;2024-02-23T07:49:17;10.10;54.10
31129;DHT22;17777;48.770;8.944;2024-02-23T07:51:44;10.10;54.20
31129;DHT22;17777;48.770;8.944;2024-02-23T07:54:10;10.10;54.20
31129;DHT22;17777;48.770;8.944;2024-02-23T07:56:36;10.10;54.30
31129;DHT22;17777;48.770;8.944;2024-02-23T07:59:02;10.10;54.30
31129;DHT22;17777;48.770;8.944;2024-02-23T08:01:28;10.20;55.00
31129;DHT22;17777;48.770;8.944;2024-02-23T08:03:55;10.20;54.30
31129;DHT22;17777;48.770;8.944;2024-02-23T08:06:22;10.20;54.40
31129;DHT22;17777;48.770;8.944;2024-02-23T08:08:48;10.20;54.40
31129;DHT22;17777;48.770;8.944;2024-02-23T08:11:14;10.30;54.50
31129;DHT22;17777;48.770;8.944;2024-02-23T08:13:40;10.30;54.30
31129;DHT22;17777;48.770;8.944;2024-02-23T08:16:06;10.30;54.20
31129;DHT22;17777;48.770;8.944;2024-02-23T08:18:32;10.30;54.20
31129;DHT22;17777;48.770;8.944;2024-02-23T08:20:58;10.40;54.20
31129;DHT22;17777;48.770;8.944;2024-02-23T08:23:27;10.40;54.30
31129;DHT22;17777;48.770;8.944;2024-02-23T08:25:53;10.40;54.30
31129;DHT22;17777;48.770;8.944;2024-02-23T08:28:19;10.40;54.40
31129;DHT22;17777;48.770;8.944;2024-02-23T08:30:45;10.40;54.10
31129;DHT22;17777;48.770;8.944;2024-02-23T08:33:11;10.40;54.80
31129;DHT22;17777;48.770;8.944;2024-02-23T08:35:37;10.40;54.20
31129;DHT22;17777;48.770;8.944;2024-02-23T08:38:03;10.50;54.20
31129;DHT22;17777;48.770;8.944;2024-02-23T08:40:30;10.50;54.30
31129;DHT22;17777;48.770;8.944;2024-02-23T08:42:56;10.50;54.40
31129;DHT22;17777;48.770;8.944;2024-02-23T08:45:21;10.50;54.20
31129;DHT22;17777;48.770;8.944;2024-02-23T08:47:47;10.50;54.20
31129;DHT22;17777;48.770;8.944;2024-02-23T08:50:13;10.50;54.20
31129;DHT22;17777;48.770;8.944;2024-02-23T08:52:40;10.60;54.30
31129;DHT22;17777;48.770;8.944;2024-02-23T08:55:06;10.60;54.30
31129;DHT22;17777;48.770;8.944;2024-02-23T08:57:32;10.60;54.20
31129;DHT22;17777;48.770;8.944;2024-02-23T08:59:57;10.70;54.10
31129;DHT22;17777;48.770;8.944;2024-02-23T09:02:24;10.70;54.00
31129;DHT22;17777;48.770;8.944;2024-02-23T09:04:50;10.70;54.00
31129;DHT22;17777;48.770;8.944;2024-02-23T09:07:16;10.70;54.00
31129;DHT22;17777;48.770;8.944;2024-02-23T09:09:46;10.70;54.00
31129;DHT22;17777;48.770;8.944;2024-02-23T09:12:12;10.70;54.00
31129;DHT22;17777;48.770;8.944;2024-02-23T09:14:40;10.70;54.00
31129;DHT22;17777;48.770;8.944;2024-02-23T09:17:07;10.80;54.10
31129;DHT22;17777;48.770;8.944;2024-02-23T09:19:34;10.80;54.10
31129;DHT22;17777;48.770;8.944;2024-02-23T09:22:00;10.80;54.20
31129;DHT22;17777;48.770;8.944;2024-02-23T09:24:27;10.90;54.20
31129;DHT22;17777;48.770;8.944;2024-02-23T09:26:53;11.00;54.10
31129;DHT22;17777;48.770;8.944;2024-02-23T09:29:19;11.00;53.80
31129;DHT22;17777;48.770;8.944;2024-02-23T09:31:45;11.10;53.80
31129;DHT22;17777;48.770;8.944;2024-02-23T09:34:10;11.10;53.70
31129;DHT22;17777;48.770;8.944;2024-02-23T09:36:36;11.20;53.70
31129;DHT22;17777;48.770;8.944;2024-02-23T09:39:02;11.20;53.60
31129;DHT22;17777;48.770;8.944;2024-02-23T09:41:30;11.30;53.40
31129;DHT22;17777;48.770;8.944;2024-02-23T09:44:01;11.30;53.30
31129;DHT22;17777;48.770;8.944;2024-02-23T09:46:27;11.30;53.30
31129;DHT22;17777;48.770;8.944;2024-02-23T09:48:55;11.30;53.20
31129;DHT22;17777;48.770;8.944;2024-02-23T09:51:22;11.40;53.10
31129;DHT22;17777;48.770;8.944;2024-02-23T09:53:50;11.30;53.00
31129;DHT22;17777;48.770;8.944;2024-02-23T09:56:17;11.40;53.00
31129;DHT22;17777;48.770;8.944;2024-02-23T09:58:44;11.30;53.00
31129;DHT22;17777;48.770;8.944;2024-02-23T10:01:15;11.30;53.10
31129;DHT22;17777;48.770;8.944;2024-02-23T10:03:48;11.30;52.90
31129;DHT22;17777;48.770;8.944;2024-02-23T10:06:13;11.40;52.90
31129;DHT22;17777;48.770;8.944;2024-02-23T10:08:39;11.30;52.90
31129;DHT22;17777;48.770;8.944;2024-02-23T10:11:05;11.30;52.90
31129;DHT22;17777;48.770;8.944;2024-02-23T10:13:31;11.30;52.90
31129;DHT22;17777;48.770;8.944;2024-02-23T10:15:56;11.30;52.60
31129;DHT22;17777;48.770;8.944;2024-02-23T10:18:22;11.30;52.60
31129;DHT22;17777;48.770;8.944;2024-02-23T10:20:49;11.30;52.50
31129;DHT22;17777;48.770;8.944;2024-02-23T10:23:16;11.30;52.50
31129;DHT22;17777;48.770;8.944;2024-02-23T10:25:41;11.30;52.50
31129;DHT22;17777;48.770;8.944;2024-02-23T10:28:07;11.30;52.30
31129;DHT22;17777;48.770;8.944;2024-02-23T10:30:37;11.30;52.50
31129;DHT22;17777;48.770;8.944;2024-02-23T10:33:05;11.20;52.40
31129;DHT22;17777;48.770;8.944;2024-02-23T10:35:32;11.20;52.30
31129;DHT22;17777;48.770;8.944;2024-02-23T10:38:01;11.20;52.20
31129;DHT22;17777;48.770;8.944;2024-02-23T10:40:30;11.30;52.40
31129;DHT22;17777;48.770;8.944;2024-02-23T10:43:02;11.30;52.30
31129;DHT22;17777;48.770;8.944;2024-02-23T10:45:31;11.30;52.40
31129;DHT22;17777;48.770;8.944;2024-02-23T10:47:58;11.30;52.20
31129;DHT22;17777;48.770;8.944;2024-02-23T10:50:25;11.30;52.40
31129;DHT22;17777;48.770;8.944;2024-02-23T10:52:52;11.30;52.50
31129;DHT22;17777;48.770;8.944;2024-02-23T10:55:18;11.40;52.60
31129;DHT22;17777;48.770;8.944;2024-02-23T10:57:45;11.40;52.70
31129;DHT22;17777;48.770;8.944;2024-02-23T11:00:14;11.50;52.70
31129;DHT22;17777;48.770;8.944;2024-02-23T11:02:46;11.60;52.80
31129;DHT22;17777;48.770;8.944;2024-02-23T11:05:16;11.60;52.30
31129;DHT22;17777;48.770;8.944;2024-02-23T11:07:42;11.70;52.30
31129;DHT22;17777;48.770;8.944;2024-02-23T11:10:08;11.70;52.00
31129;DHT22;17777;48.770;8.944;2024-02-23T11:12:37;11.80;52.00
31129;DHT22;17777;48.770;8.944;2024-02-23T11:15:03;11.80;52.10
31129;DHT22;17777;48.770;8.944;2024-02-23T11:17:31;11.80;52.10
31129;DHT22;17777;48.770;8.944;2024-02-23T11:19:58;11.90;51.60
31129;DHT22;17777;48.770;8.944;2024-02-23T11:22:30;11.90;52.00
31129;DHT22;17777;48.770;8.944;2024-02-23T11:25:16;12.00;51.90
31129;DHT22;17777;48.770;8.944;2024-02-23T11:27:43;12.00;51.30
31129;DHT22;17777;48.770;8.944;2024-02-23T11:30:10;12.00;51.70
31129;DHT22;17777;48.770;8.944;2024-02-23T11:32:38;12.10;51.60
31129;DHT22;17777;48.770;8.944;2024-02-23T11:35:06;12.10;51.70
31129;DHT22;17777;48.770;8.944;2024-02-23T11:37:45;12.10;51.50
31129;DHT22;17777;48.770;8.944;2024-02-23T11:40:15;12.10;51.00
31129;DHT22;17777;48.770;8.944;2024-02-23T11:42:42;12.20;51.50
31129;DHT22;17777;48.770;8.944;2024-02-23T11:45:09;12.20;51.40
31129;DHT22;17777;48.770;8.944;2024-02-23T11:47:39;12.20;51.60
31129;DHT22;17777;48.770;8.944;2024-02-23T11:50:11;12.20;51.50
31129;DHT22;17777;48.770;8.944;2024-02-23T11:52:37;12.20;51.40
31129;DHT22;17777;48.770;8.944;2024-02-23T11:55:05;12.30;51.70
31129;DHT22;17777;48.770;8.944;2024-02-23T11:57:32;12.30;51.30
31129;DHT22;17777;48.770;8.944;2024-02-23T12:00:01;12.30;51.20
31129;DHT22;17777;48.770;8.944;2024-02-23T12:02:30;12.40;50.90
31129;DHT22;17777;48.770;8.944;2024-02-23T12:04:56;12.40;51.10
31129;DHT22;17777;48.770;8.944;2024-02-23T12:07:22;12.40;51.00
31129;DHT22;17777;48.770;8.944;2024-02-23T12:09:48;12.40;50.90
31129;DHT22;17777;48.770;8.944;2024-02-23T12:12:14;12.40;50.90
31129;DHT22;17777;48.770;8.944;2024-02-23T12:14:40;12.40;50.90
31129;DHT22;17777;48.770;8.944;2024-02-23T12:17:08;12.50;51.20
31129;DHT22;17777;48.770;8.944;2024-02-23T12:19:40;12.50;51.10
31129;DHT22;17777;48.770;8.944;2024-02-23T12:22:07;12.60;50.70
31129;DHT22;17777;48.770;8.944;2024-02-23T12:24:34;12.60;50.90
31129;DHT22;17777;48.770;8.944;2024-02-23T12:27:00;12.70;51.20
31129;DHT22;17777;48.770;8.944;2024-02-23T12:29:26;12.70;50.80
31129;DHT22;17777;48.770;8.944;2024-02-23T12:32:03;12.70;50.50
31129;DHT22;17777;48.770;8.944;2024-02-23T12:34:32;12.70;50.10
31129;DHT22;17777;48.770;8.944;2024-02-23T12:36:58;12.80;50.60
31129;DHT22;17777;48.770;8.944;2024-02-23T12:39:24;12.80;50.20
31129;DHT22;17777;48.770;8.944;2024-02-23T12:41:50;12.80;50.20
31129;DHT22;17777;48.770;8.944;2024-02-23T12:44:16;12.80;50.30
31129;DHT22;17777;48.770;8.944;2024-02-23T12:46:42;12.70;50.30
31129;DHT22;17777;48.770;8.944;2024-02-23T12:49:08;12.80;50.40
31129;DHT22;17777;48.770;8.944;2024-02-23T12:51:34;12.80;50.50
31129;DHT22;17777;48.770;8.944;2024-02-23T12:54:00;12.80;50.30
31129;DHT22;17777;48.770;8.944;2024-02-23T12:56:26;12.80;50.10
31129;DHT22;17777;48.770;8.944;2024-02-23T12:58:52;12.80;50.00
31129;DHT22;17777;48.770;8.944;2024-02-23T13:01:22;12.80;50.20
31129;DHT22;17777;48.770;8.944;2024-02-23T13:03:48;12.80;50.30
31129;DHT22;17777;48.770;8.944;2024-02-23T13:06:14;12.80;50.30
31129;DHT22;17777;48.770;8.944;2024-02-23T13:08:40;12.80;50.40
31129;DHT22;17777;48.770;8.944;2024-02-23T13:11:08;12.80;50.30
31129;DHT22;17777;48.770;8.944;2024-02-23T13:13:33;12.80;50.10
31129;DHT22;17777;48.770;8.944;2024-02-23T13:15:59;12.80;49.80
31129;DHT22;17777;48.770;8.944;2024-02-23T13:18:25;12.80;49.70
31129;DHT22;17777;48.770;8.944;2024-02-23T13:20:51;12.80;49.90
31129;DHT22;17777;48.770;8.944;2024-02-23T13:23:17;12.80;49.90
31129;DHT22;17777;48.770;8.944;2024-02-23T13:25:44;12.80;50.00
31129;DHT22;17777;48.770;8.944;2024-02-23T13:28:10;12.80;50.00
31129;DHT22;17777;48.770;8.944;2024-02-23T13:30:37;12.80;49.90
31129;DHT22;17777;48.770;8.944;2024-02-23T13:33:04;12.80;49.90
31129;DHT22;17777;48.770;8.944;2024-02-23T13:35:31;12.80;50.00
31129;DHT22;17777;48.770;8.944;2024-02-23T13:37:57;12.80;50.00
31129;DHT22;17777;48.770;8.944;2024-02-23T13:40:23;12.80;50.00
31129;DHT22;17777;48.770;8.944;2024-02-23T13:42:49;12.80;49.70
31129;DHT22;17777;48.770;8.944;2024-02-23T13:45:15;12.80;49.90
31129;DHT22;17777;48.770;8.944;2024-02-23T13:47:42;12.80;50.00
31129;DHT22;17777;48.770;8.944;2024-02-23T13:50:10;12.80;49.80
31129;DHT22;17777;48.770;8.944;2024-02-23T13:52:37;12.80;50.00
31129;DHT22;17777;48.770;8.944;2024-02-23T13:55:03;12.80;50.10
31129;DHT22;17777;48.770;8.944;2024-02-23T13:57:29;12.80;50.00
31129;DHT22;17777;48.770;8.944;2024-02-23T13:59:54;12.80;50.70
31129;DHT22;17777;48.770;8.944;2024-02-23T14:02:27;12.80;49.90
31129;DHT22;17777;48.770;8.944;2024-02-23T14:05:00;12.80;49.80
31129;DHT22;17777;48.770;8.944;2024-02-23T14:07:28;12.90;50.10
31129;DHT22;17777;48.770;8.944;2024-02-23T14:09:53;12.90;50.10
31129;DHT22;17777;48.770;8.944;2024-02-23T14:12:19;12.90;49.90
31129;DHT22;17777;48.770;8.944;2024-02-23T14:14:45;12.90;50.10
31129;DHT22;17777;48.770;8.944;2024-02-23T14:17:11;12.90;50.00
31129;DHT22;17777;48.770;8.944;2024-02-23T14:19:36;13.00;50.00
31129;DHT22;17777;48.770;8.944;2024-02-23T14:22:02;13.00;49.90
31129;DHT22;17777;48.770;8.944;2024-02-23T14:24:28;13.00;49.90
31129;DHT22;17777;48.770;8.944;2024-02-23T14:26:54;13.00;50.00
31129;DHT22;17777;48.770;8.944;2024-02-23T14:29:20;13.10;49.80
31129;DHT22;17777;48.770;8.944;2024-02-23T14:31:46;13.10;49.50
31129;DHT22;17777;48.770;8.944;2024-02-23T14:34:12;13.10;49.40
31129;DHT22;17777;48.770;8.944;2024-02-23T14:36:38;13.10;49.50
31129;DHT22;17777;48.770;8.944;2024-02-23T14:39:03;13.10;49.40
31129;DHT22;17777;48.770;8.944;2024-02-23T14:41:32;13.10;49.70
31129;DHT22;17777;48.770;8.944;2024-02-23T14:43:58;13.20;49.70
31129;DHT22;17777;48.770;8.944;2024-02-23T14:46:23;13.20;49.50
31129;DHT22;17777;48.770;8.944;2024-02-23T14:48:49;13.20;49.50
31129;DHT22;17777;48.770;8.944;2024-02-23T14:51:15;13.20;49.40
31129;DHT22;17777;48.770;8.944;2024-02-23T14:53:41;13.20;49.70
31129;DHT22;17777;48.770;8.944;2024-02-23T14:56:07;13.20;49.00
31129;DHT22;17777;48.770;8.944;2024-02-23T14:58:33;13.20;49.10
31129;DHT22;17777;48.770;8.944;2024-02-23T15:00:59;13.10;49.00
31129;DHT22;17777;48.770;8.944;2024-02-23T15:03:25;13.20;49.20
31129;DHT22;17777;48.770;8.944;2024-02-23T15:05:51;13.10;49.40
31129;DHT22;17777;48.770;8.944;2024-02-23T15:08:17;13.10;49.40
31129;DHT22;17777;48.770;8.944;2024-02-23T15:10:43;13.10;49.40
31129;DHT22;17777;48.770;8.944;2024-02-23T15:13:09;13.10;49.40
31129;DHT22;17777;48.770;8.944;2024-02-23T15:15:35;13.10;49.40
31129;DHT22;17777;48.770;8.944;2024-02-23T15:18:08;13.00;49.40
31129;DHT22;17777;48.770;8.944;2024-02-23T15:20:34;13.00;49.70
31129;DHT22;17777;48.770;8.944;2024-02-23T15:23:01;13.00;49.90
31129;DHT22;17777;48.770;8.944;2024-02-23T15:25:27;13.00;49.90